Terminal Aerodrome Forecast
Issued by NWS

Home | Current Version | Previous Version | Text Only | Print | Product List | Glossary On
Versions: 1 2 3 4 5 6 7 8 9 10 11 12 13 14 15 16 17
466
FTUS43 KGRB 300527
TAFCWA
TAF
KCWA 300527Z 3006/3106 09010KT 6SM -RASN SCT009 OVC035
      TEMPO 3006/3010 3SM -SN BKN008 BKN025
     FM301000 08010KT 3SM -SN BKN008
     FM301500 09010G19KT 4SM -RASN BKN012
     FM310100 04010KT P6SM OVC020=

USA.gov is the U.S. government's official web portal to all federal, state and local government web resources and services.